createdAt,value
2018-04-06T00:02:10.225Z,76683.75
2018-04-06T00:04:41.900Z,76669.57
2018-04-06T00:07:13.197Z,76652.36
2018-04-06T00:09:44.476Z,76644.26
2018-04-06T00:12:15.905Z,76619.95
2018-04-06T00:14:47.206Z,76669.57
2018-04-06T00:17:18.293Z,76667.55
2018-04-06T00:19:49.408Z,76669.57
2018-04-06T00:22:21.173Z,76660.45
2018-04-06T00:24:52.666Z,76664.51
2018-04-06T00:27:23.897Z,76628.06
2018-04-06T00:29:55.576Z,76639.20
2018-04-06T00:32:27.172Z,76638.19
2018-04-06T00:34:58.644Z,76687.80
2018-04-06T00:37:30.125Z,76670.58
2018-04-06T00:40:01.457Z,76690.83
2018-04-06T00:42:32.815Z,76677.67
2018-04-06T00:45:04.665Z,76671.59
2018-04-06T00:47:36.314Z,76681.72
2018-04-06T00:50:07.862Z,76649.32
2018-04-06T00:52:39.112Z,76692.86
2018-04-06T00:55:10.644Z,76686.78
2018-04-06T00:57:42.327Z,76673.63
2018-04-06T01:00:13.701Z,76687.80
2018-04-06T01:02:45.580Z,76712.09
2018-04-06T01:05:17.197Z,76701.97
2018-04-06T01:07:48.749Z,76712.09
2018-04-06T01:10:20.197Z,76687.80
2018-04-06T01:12:51.617Z,76682.73
2018-04-06T01:15:22.749Z,76688.81
2018-04-06T01:17:53.906Z,76686.78
2018-04-06T01:20:25.689Z,76687.80
2018-04-06T01:22:57.176Z,76688.81
2018-04-06T01:25:28.705Z,76712.09
2018-04-06T01:28:00.637Z,76707.03
2018-04-06T01:30:31.913Z,76694.89
2018-04-06T01:33:03.461Z,76689.82
2018-04-06T01:35:35.225Z,76675.65
2018-04-06T01:38:06.948Z,76702.98
2018-04-06T01:40:38.189Z,76684.76
2018-04-06T01:43:09.760Z,76686.78
2018-04-06T01:45:41.415Z,76700.95
2018-04-06T01:48:13.351Z,76689.82
2018-04-06T01:50:44.873Z,76694.89
2018-04-06T01:53:16.221Z,76685.77
2018-04-06T01:55:47.682Z,76696.91
2018-04-06T01:58:19.130Z,76710.07
2018-04-06T02:00:50.553Z,76712.09
2018-04-06T02:03:22.074Z,76746.52
2018-04-06T02:05:53.012Z,76755.64
2018-04-06T02:08:24.498Z,76763.73
2018-04-06T02:10:55.988Z,76757.66
2018-04-06T02:13:27.329Z,76733.36
2018-04-06T02:15:58.680Z,76720.20
2018-04-06T02:18:30.368Z,76736.40
2018-04-06T02:21:01.872Z,76746.52
2018-04-06T02:23:33.594Z,76771.84
2018-04-06T02:26:05.320Z,76809.30
2018-04-06T02:28:36.701Z,76856.89
2018-04-06T02:31:07.498Z,76799.18
2018-04-06T02:33:39.258Z,76782.98
2018-04-06T02:36:10.080Z,76806.27
2018-04-06T02:38:41.436Z,76829.55
2018-04-06T02:41:13.365Z,76808.29
2018-04-06T02:43:44.853Z,76760.70
2018-04-06T02:46:15.978Z,76773.86
2018-04-06T02:48:47.021Z,76849.81
2018-04-06T02:51:17.873Z,76816.39
2018-04-06T02:53:48.965Z,76861.95
2018-04-06T02:56:20.185Z,76840.70
2018-04-06T02:58:51.185Z,76865.00
2018-04-06T03:01:22.724Z,76803.23
2018-04-06T03:03:53.577Z,76815.38
2018-04-06T03:06:25.164Z,76824.49
2018-04-06T03:08:56.119Z,76802.22
2018-04-06T03:11:26.936Z,76814.37
2018-04-06T03:13:58.057Z,76805.25
2018-04-06T03:16:28.933Z,76819.43
2018-04-06T03:18:59.781Z,76848.80
2018-04-06T03:21:30.924Z,76870.06
2018-04-06T03:24:01.858Z,76876.13
2018-04-06T03:26:33.181Z,76811.33
2018-04-06T03:29:04.294Z,76827.53
2018-04-06T03:31:35.570Z,76823.48
2018-04-06T03:34:07.074Z,76839.69
2018-04-06T03:36:38.505Z,76841.70
2018-04-06T03:39:09.669Z,76849.81
2018-04-06T03:41:40.809Z,76843.73
2018-04-06T03:44:13.290Z,76848.80
2018-04-06T03:46:44.669Z,76845.75
2018-04-06T03:49:15.715Z,76852.84
2018-04-06T03:51:46.796Z,76850.82
2018-04-06T03:54:17.896Z,76874.11
2018-04-06T03:56:49.684Z,76866.01
2018-04-06T03:59:24.228Z,76868.03
2018-04-06T04:01:55.510Z,76901.45
2018-04-06T04:04:27.288Z,76852.84
2018-04-06T04:06:58.041Z,76854.87
2018-04-06T04:09:29.101Z,76853.86
2018-04-06T04:12:00.474Z,76881.20
2018-04-06T04:14:32.054Z,76882.21
2018-04-06T04:17:02.921Z,76871.07
2018-04-06T04:19:33.780Z,76886.27
2018-04-06T04:22:04.710Z,76893.34
2018-04-06T04:24:38.053Z,76894.36
2018-04-06T04:27:09.580Z,76895.38
2018-04-06T04:29:41.129Z,76901.45
2018-04-06T04:32:12.472Z,76895.38
2018-04-06T04:34:44.165Z,76878.16
2018-04-06T04:37:15.745Z,76897.40
2018-04-06T04:39:46.865Z,76900.44
2018-04-06T04:42:18.116Z,76901.45
2018-04-06T04:44:49.394Z,76898.41
2018-04-06T04:47:20.641Z,76900.44
2018-04-06T04:49:51.441Z,76946.00
2018-04-06T04:52:22.573Z,76908.54
2018-04-06T04:54:53.985Z,76908.54
2018-04-06T04:57:24.869Z,76918.66
2018-04-06T04:59:56.233Z,76912.59
2018-04-06T05:02:28.069Z,76919.67
2018-04-06T05:04:59.477Z,76929.80
2018-04-06T05:07:30.909Z,76907.53
2018-04-06T05:10:02.652Z,76916.64
2018-04-06T05:12:33.517Z,76926.77
2018-04-06T05:15:05.162Z,76932.84
2018-04-06T05:17:36.093Z,76915.63
2018-04-06T05:20:08.049Z,76913.59
2018-04-06T05:22:39.377Z,76929.80
2018-04-06T05:25:10.594Z,76953.09
2018-04-06T05:27:42.248Z,76956.13
2018-04-06T05:30:13.445Z,76951.06
2018-04-06T05:32:44.782Z,76957.14
2018-04-06T05:35:16.094Z,76939.93
2018-04-06T05:37:47.058Z,76936.89
2018-04-06T05:40:19.077Z,76923.73
2018-04-06T05:42:50.258Z,76940.94
2018-04-06T05:45:21.085Z,76930.81
2018-04-06T05:47:52.237Z,76922.72
2018-04-06T05:50:23.902Z,76902.46
2018-04-06T05:52:55.917Z,76938.91
2018-04-06T05:55:27.055Z,76895.38
2018-04-06T05:57:58.821Z,76881.20
2018-04-06T06:00:29.856Z,76898.41
2018-04-06T06:03:02.246Z,76883.22
2018-04-06T06:05:37.961Z,76885.25
2018-04-06T06:08:09.099Z,76848.80
2018-04-06T06:10:40.825Z,76866.01
2018-04-06T06:13:11.629Z,76851.83
2018-04-06T06:15:43.225Z,76794.11
2018-04-06T06:18:14.971Z,76830.56
2018-04-06T06:20:45.791Z,76791.08
2018-04-06T06:23:16.818Z,76780.95
2018-04-06T06:25:47.906Z,76782.98
2018-04-06T06:28:19.294Z,76773.86
2018-04-06T06:30:50.519Z,76813.36
2018-04-06T06:33:21.849Z,76776.91
2018-04-06T06:35:53.469Z,76762.73
2018-04-06T06:38:25.141Z,76727.28
2018-04-06T06:40:56.214Z,76711.08
2018-04-06T06:43:27.233Z,76674.63
2018-04-06T06:45:58.419Z,76669.57
2018-04-06T06:48:29.752Z,76666.53
2018-04-06T06:51:00.598Z,76632.11
2018-04-06T06:53:31.809Z,76643.24
2018-04-06T06:58:38.037Z,76610.84
2018-04-06T07:01:09.360Z,76598.70
2018-04-06T07:03:40.489Z,76600.72
2018-04-06T07:06:11.764Z,76580.47
2018-04-06T07:08:42.566Z,76680.70
2018-04-06T07:11:13.387Z,76592.62
2018-04-06T07:13:44.645Z,76518.70
2018-04-06T07:16:17.158Z,76478.20
2018-04-06T07:18:48.608Z,76429.61
2018-04-06T07:21:19.758Z,76398.22
2018-04-06T07:23:50.660Z,76345.58
2018-04-06T07:26:21.538Z,76344.56
2018-04-06T07:28:52.641Z,76286.86
2018-04-06T07:31:23.413Z,76299.00
2018-04-06T07:33:54.256Z,76296.98
2018-04-06T07:36:25.387Z,76255.47
2018-04-06T07:38:56.511Z,76287.87
2018-04-06T07:41:27.845Z,76269.64
2018-04-06T07:43:58.812Z,76248.38
2018-04-06T07:46:29.685Z,76252.43
2018-04-06T07:49:00.824Z,76278.75
2018-04-06T07:51:31.613Z,76236.23
2018-04-06T07:54:02.439Z,76279.77
2018-04-06T07:56:33.615Z,76318.23
2018-04-06T07:59:04.461Z,76204.84
2018-04-06T08:01:35.360Z,76170.43
2018-04-06T08:04:06.582Z,76211.94
2018-04-06T08:06:38.179Z,76323.30
2018-04-06T08:09:09.477Z,76387.09
2018-04-06T08:11:40.518Z,76262.55
2018-04-06T08:14:11.495Z,76257.50
2018-04-06T08:16:43.537Z,76166.38
2018-04-06T08:19:14.325Z,76224.08
2018-04-06T08:21:45.297Z,76195.73
2018-04-06T08:24:16.628Z,76225.09
2018-04-06T08:26:47.606Z,76428.59
2018-04-06T08:29:18.567Z,76280.78
2018-04-06T08:31:49.709Z,76264.58
2018-04-06T08:34:20.660Z,76277.74
2018-04-06T08:36:51.957Z,76167.39
2018-04-06T08:39:22.771Z,76122.84
2018-04-06T08:41:54.226Z,76101.58
2018-04-06T08:44:25.102Z,76092.47
2018-04-06T08:46:56.056Z,76051.98
2018-04-06T08:49:27.485Z,76048.94
2018-04-06T08:51:58.485Z,76256.48
2018-04-06T08:54:29.377Z,76075.27
2018-04-06T08:57:00.641Z,76055.02
2018-04-06T08:59:31.428Z,76111.70
2018-04-06T09:02:02.491Z,76029.70
2018-04-06T09:04:33.667Z,75998.33
2018-04-06T09:07:04.721Z,76030.72
2018-04-06T09:09:35.962Z,76156.25
2018-04-06T09:12:06.785Z,76002.38
2018-04-06T09:14:37.655Z,75930.50
2018-04-06T09:17:09.312Z,75906.20
2018-04-06T09:19:40.121Z,75873.81
2018-04-06T09:22:16.693Z,75979.09
2018-04-06T09:24:47.754Z,76025.66
2018-04-06T09:27:18.597Z,75965.93
2018-04-06T09:29:49.321Z,75956.81
2018-04-06T09:32:20.431Z,76006.42
2018-04-06T09:34:51.265Z,75989.22
2018-04-06T09:37:22.142Z,75849.52
2018-04-06T09:39:53.309Z,75909.24
2018-04-06T09:42:24.210Z,76082.34
2018-04-06T09:44:55.059Z,75911.27
2018-04-06T09:47:26.205Z,75843.44
2018-04-06T09:49:57.079Z,75801.94
2018-04-06T09:52:27.966Z,75918.35
2018-04-06T09:54:59.313Z,75863.69
2018-04-06T09:57:30.438Z,75881.91
2018-04-06T10:00:01.598Z,75813.08
2018-04-06T10:02:36.326Z,75733.10
2018-04-06T10:05:07.317Z,75880.90
2018-04-06T10:07:38.401Z,75788.78
2018-04-06T10:10:09.229Z,75782.70
2018-04-06T10:12:40.071Z,75944.67
2018-04-06T10:15:11.601Z,75898.11
2018-04-06T10:17:42.705Z,75855.59
2018-04-06T10:20:13.849Z,75780.68
2018-04-06T10:22:44.726Z,75690.59
2018-04-06T10:25:15.992Z,75865.71
2018-04-06T10:27:47.195Z,75744.23
2018-04-06T10:30:18.146Z,75678.44
2018-04-06T10:32:49.155Z,75576.20
2018-04-06T10:35:20.254Z,75600.50
2018-04-06T10:37:51.118Z,75684.52
2018-04-06T10:40:22.001Z,75585.31
2018-04-06T10:42:53.435Z,75538.75
2018-04-06T10:47:46.984Z,75523.57
2018-04-06T10:50:18.714Z,75438.55
2018-04-06T10:52:49.514Z,75487.13
2018-04-06T10:55:20.828Z,75393.00
2018-04-06T10:57:52.272Z,75329.23
2018-04-06T11:00:23.285Z,75379.84
2018-04-06T11:02:54.262Z,75331.26
2018-04-06T11:05:26.105Z,75361.63
2018-04-06T11:07:56.996Z,75333.28
2018-04-06T11:10:28.161Z,75296.84
2018-04-06T11:12:59.152Z,75312.03
2018-04-06T11:15:34.141Z,75371.75
2018-04-06T11:18:05.524Z,75340.37
2018-04-06T11:20:36.643Z,75357.58
2018-04-06T11:23:07.830Z,75315.06
2018-04-06T11:25:38.788Z,75257.38
2018-04-06T11:28:10.002Z,75257.38
2018-04-06T11:30:41.231Z,75284.70
2018-04-06T11:33:12.041Z,75269.52
2018-04-06T11:35:43.982Z,75317.09
2018-04-06T11:38:14.840Z,75215.88
2018-04-06T11:40:45.829Z,75190.58
2018-04-06T11:43:17.563Z,75418.30
2018-04-06T11:45:48.577Z,75397.05
2018-04-06T11:48:19.609Z,75241.18
2018-04-06T11:50:50.998Z,75244.22
2018-04-06T11:53:22.881Z,75285.71
2018-04-06T11:55:53.672Z,75315.06
2018-04-06T11:58:25.477Z,75202.72
2018-04-06T12:00:57.361Z,75247.25
2018-04-06T12:03:28.403Z,75273.56
2018-04-06T12:06:00.593Z,75258.38
2018-04-06T12:08:31.969Z,75159.20
2018-04-06T12:11:05.348Z,75157.17
2018-04-06T12:13:36.210Z,75262.44
2018-04-06T12:16:07.745Z,75228.02
2018-04-06T12:18:39.535Z,75152.11
2018-04-06T12:21:10.908Z,75188.55
2018-04-06T12:23:43.536Z,75160.21
2018-04-06T12:26:15.414Z,75123.77
2018-04-06T12:28:46.886Z,75070.14
2018-04-06T12:31:17.949Z,75087.34
2018-04-06T12:36:26.729Z,75157.17
2018-04-06T12:39:00.646Z,75118.72
2018-04-06T12:41:32.034Z,75116.69
2018-04-06T12:44:03.469Z,75101.52
2018-04-06T12:46:36.331Z,75046.86
2018-04-06T12:49:07.182Z,75042.81
2018-04-06T12:51:38.733Z,75150.09
2018-04-06T12:54:09.992Z,75236.12
2018-04-06T12:56:41.150Z,75152.11
2018-04-06T12:59:13.125Z,75117.70
2018-04-06T13:01:44.597Z,75053.94
2018-04-06T13:05:23.445Z,75049.89
2018-04-06T13:07:54.773Z,75008.40
2018-04-06T13:10:25.790Z,75070.14
2018-04-06T13:13:02.777Z,75018.52
2018-04-06T13:15:34.775Z,75080.26
2018-04-06T13:18:07.540Z,75388.95
2018-04-06T13:20:39.433Z,75145.03
2018-04-06T13:23:11.505Z,75168.31
2018-04-06T13:25:44.120Z,75048.88
2018-04-06T13:28:20.591Z,75016.50
2018-04-06T13:30:54.323Z,75124.78
2018-04-06T13:33:25.963Z,75130.86
2018-04-06T13:35:57.079Z,75217.91
2018-04-06T13:38:28.277Z,75150.09
2018-04-06T13:40:59.210Z,75166.28
2018-04-06T13:43:30.628Z,75173.37
2018-04-06T13:46:02.270Z,75163.25
2018-04-06T13:48:33.253Z,75234.09
2018-04-06T13:51:04.564Z,75218.91
2018-04-06T13:53:35.685Z,75230.05
2018-04-06T13:56:06.808Z,75205.76
2018-04-06T13:58:38.324Z,75197.66
2018-04-06T14:01:09.966Z,75156.16
2018-04-06T14:03:42.401Z,75149.08
2018-04-06T14:06:13.609Z,75181.47
2018-04-06T14:08:45.292Z,75206.77
2018-04-06T14:11:17.088Z,75199.69
2018-04-06T14:13:47.945Z,75194.63
2018-04-06T14:16:19.347Z,75178.43
2018-04-06T14:18:50.541Z,75199.69
2018-04-06T14:21:21.500Z,75203.73
2018-04-06T14:23:52.314Z,75166.28
2018-04-06T14:26:24.211Z,75199.69
2018-04-06T14:28:55.764Z,75253.33
2018-04-06T14:31:27.157Z,75211.83
2018-04-06T14:33:58.171Z,75224.98
2018-04-06T14:36:29.831Z,75229.03
2018-04-06T14:39:01.041Z,75210.81
2018-04-06T14:41:32.379Z,75212.84
2018-04-06T14:44:03.289Z,75226.00
2018-04-06T14:46:34.450Z,75226.00
2018-04-06T14:49:05.967Z,75222.96
2018-04-06T14:51:36.849Z,75247.25
2018-04-06T14:54:08.556Z,75218.91
2018-04-06T14:56:39.816Z,75243.20
2018-04-06T14:59:11.466Z,75241.18
2018-04-06T15:01:42.565Z,75240.17
2018-04-06T15:04:15.266Z,75229.03
2018-04-06T15:06:47.066Z,75233.08
2018-04-06T15:09:18.151Z,75243.20
2018-04-06T15:11:49.348Z,75233.08
2018-04-06T15:14:20.408Z,75220.94
2018-04-06T15:16:51.346Z,75223.97
2018-04-06T15:19:23.630Z,75208.80
2018-04-06T15:21:54.528Z,75216.89
2018-04-06T15:24:25.414Z,75194.63
2018-04-06T15:26:56.574Z,75203.73
2018-04-06T15:29:27.468Z,75208.80
2018-04-06T15:31:58.295Z,75203.73
2018-04-06T15:34:30.833Z,75214.86
2018-04-06T15:37:04.842Z,75240.17
2018-04-06T15:39:36.029Z,75212.84
2018-04-06T15:42:06.899Z,75237.13
2018-04-06T15:44:37.817Z,75220.94
2018-04-06T15:47:09.169Z,75212.84
2018-04-06T15:49:41.427Z,75206.77
2018-04-06T15:52:17.103Z,75203.73
2018-04-06T15:54:48.819Z,75203.73
2018-04-06T15:57:19.694Z,75204.75
2018-04-06T15:59:50.683Z,75229.03
2018-04-06T16:02:22.246Z,75213.85
2018-04-06T16:04:53.372Z,75198.67
2018-04-06T16:07:25.579Z,75195.64
2018-04-06T16:09:57.634Z,75208.80
2018-04-06T16:12:28.442Z,75221.95
2018-04-06T16:14:59.808Z,75228.02
2018-04-06T16:17:30.901Z,75236.12
2018-04-06T16:20:01.772Z,75243.20
2018-04-06T16:22:32.613Z,75220.94
2018-04-06T16:25:03.811Z,75221.95
2018-04-06T16:27:34.645Z,75229.03
2018-04-06T16:30:05.423Z,75238.14
2018-04-06T16:32:36.500Z,75237.13
2018-04-06T16:35:07.893Z,75245.23
2018-04-06T16:37:39.014Z,75257.38
2018-04-06T16:40:10.897Z,75260.41
2018-04-06T16:42:43.397Z,75273.56
2018-04-06T16:45:14.666Z,75289.77
2018-04-06T16:47:45.841Z,75282.67
2018-04-06T16:50:17.127Z,75281.66
2018-04-06T16:52:53.508Z,75293.81
2018-04-06T16:55:24.457Z,75299.88
2018-04-06T16:57:58.314Z,75301.91
2018-04-06T17:00:31.782Z,75310.00
2018-04-06T17:03:15.934Z,75305.95
2018-04-06T17:05:51.896Z,75290.77
2018-04-06T17:08:31.972Z,75313.04
2018-04-06T17:11:07.131Z,75323.16
2018-04-06T17:13:41.788Z,75320.13
2018-04-06T17:16:16.785Z,75327.21
2018-04-06T17:18:51.703Z,75322.15
2018-04-06T17:21:24.395Z,75342.39
2018-04-06T17:24:02.704Z,75348.47
2018-04-06T17:26:37.228Z,75365.67
2018-04-06T17:29:11.020Z,75364.66
2018-04-06T17:31:47.932Z,75361.63
2018-04-06T17:34:22.835Z,75378.83
2018-04-06T17:37:00.209Z,75404.13
2018-04-06T17:39:34.904Z,75423.36
2018-04-06T17:42:07.788Z,75397.05
2018-04-06T17:44:51.405Z,75390.98
2018-04-06T17:47:30.838Z,75444.63
2018-04-06T17:50:06.938Z,75439.56
2018-04-06T17:52:40.576Z,75466.89
2018-04-06T17:55:20.442Z,75487.13
2018-04-06T17:57:53.943Z,75480.05
2018-04-06T18:00:27.621Z,75489.16
2018-04-06T18:03:00.525Z,75514.46
2018-04-06T18:05:35.508Z,75550.91
2018-04-06T18:08:09.136Z,75579.24
2018-04-06T18:10:40.824Z,75638.97
2018-04-06T18:13:13.768Z,75653.13
2018-04-06T18:15:47.522Z,75643.02
2018-04-06T18:18:20.520Z,75627.83
2018-04-06T18:20:51.349Z,75673.38
2018-04-06T18:23:22.334Z,75658.20
2018-04-06T18:25:53.459Z,75610.63
2018-04-06T18:28:24.381Z,75619.73
2018-04-06T18:30:57.961Z,75599.48
2018-04-06T18:33:29.801Z,75612.64
2018-04-06T18:36:02.579Z,75597.46
2018-04-06T18:38:33.706Z,75614.67
2018-04-06T18:41:04.591Z,75604.55
2018-04-06T18:43:35.487Z,75651.11
2018-04-06T18:46:06.648Z,75631.88
2018-04-06T18:48:37.684Z,75651.11
2018-04-06T18:51:08.649Z,75655.16
2018-04-06T18:53:39.813Z,75653.13
2018-04-06T18:56:13.725Z,75670.34
2018-04-06T18:58:46.523Z,75657.19
2018-04-06T19:01:17.357Z,75695.65
2018-04-06T19:03:48.180Z,75653.13
2018-04-06T19:06:19.790Z,75675.41
2018-04-06T19:08:50.685Z,75681.48
2018-04-06T19:11:22.931Z,75693.63
2018-04-06T19:13:57.589Z,75744.23
2018-04-06T19:16:30.014Z,75730.06
2018-04-06T19:19:04.690Z,75698.69
2018-04-06T19:21:46.972Z,75703.75
2018-04-06T19:24:18.784Z,75773.59
2018-04-06T19:26:49.989Z,75801.94
2018-04-06T19:29:21.446Z,75769.55
2018-04-06T19:31:52.511Z,75776.63
2018-04-06T19:34:26.516Z,75760.44
2018-04-06T19:36:57.354Z,75740.19
2018-04-06T19:39:28.545Z,75746.27
2018-04-06T19:42:01.760Z,75784.73
2018-04-06T19:44:33.412Z,75830.28
2018-04-06T19:47:06.831Z,75813.08
2018-04-06T19:49:38.880Z,75793.84
2018-04-06T19:52:11.720Z,75844.45
2018-04-06T19:54:42.598Z,75811.05
2018-04-06T19:57:13.561Z,75821.17
2018-04-06T19:59:46.084Z,75818.13
2018-04-06T20:02:21.944Z,75819.14
2018-04-06T20:04:55.803Z,75826.23
2018-04-06T20:07:26.827Z,75839.39
2018-04-06T20:10:01.281Z,75848.50
2018-04-06T20:12:34.394Z,75847.48
2018-04-06T20:15:05.517Z,75844.45
2018-04-06T20:17:39.177Z,75856.60
2018-04-06T20:20:11.508Z,75837.37
2018-04-06T20:22:45.204Z,75835.34
2018-04-06T20:25:19.289Z,75851.54
2018-04-06T20:27:50.490Z,75843.44
2018-04-06T20:30:22.947Z,75835.34
2018-04-06T20:32:54.152Z,75866.72
2018-04-06T20:35:25.021Z,75895.06
2018-04-06T20:37:56.008Z,75877.86
2018-04-06T20:40:28.542Z,75898.11
2018-04-06T20:43:00.132Z,75904.18
2018-04-06T20:45:31.297Z,75915.31
2018-04-06T20:48:03.657Z,75897.09
2018-04-06T20:50:35.389Z,75916.33
2018-04-06T20:53:06.604Z,75921.39
2018-04-06T20:55:37.992Z,75938.59
2018-04-06T20:58:08.928Z,75947.71
2018-04-06T21:00:40.227Z,75923.41
2018-04-06T21:03:11.204Z,75921.39
2018-04-06T21:05:42.169Z,75908.23
2018-04-06T21:08:13.525Z,75910.25
2018-04-06T21:10:44.480Z,75895.06
2018-04-06T21:13:15.628Z,75902.16
2018-04-06T21:15:46.490Z,75940.63
2018-04-06T21:18:17.505Z,75916.33
2018-04-06T21:20:48.727Z,75937.58
2018-04-06T21:23:19.709Z,75925.44
2018-04-06T21:25:50.637Z,75906.20
2018-04-06T21:28:21.854Z,75918.35
2018-04-06T21:30:52.892Z,75907.22
2018-04-06T21:33:23.750Z,75930.50
2018-04-06T21:35:54.932Z,75937.58
2018-04-06T21:38:25.829Z,75924.42
2018-04-06T21:40:57.368Z,75934.55
2018-04-06T21:43:28.499Z,75970.99
2018-04-06T21:45:59.465Z,75954.80
2018-04-06T21:48:30.357Z,75989.22
2018-04-06T21:51:01.902Z,75990.23
2018-04-06T21:53:32.785Z,75957.83
2018-04-06T21:56:06.380Z,76021.61
2018-04-06T21:58:38.026Z,76055.02
2018-04-06T22:01:09.323Z,76033.75
2018-04-06T22:03:40.537Z,76062.10
2018-04-06T22:06:11.330Z,76022.63
2018-04-06T22:08:42.152Z,76040.84
2018-04-06T22:11:13.266Z,76031.73
2018-04-06T22:13:44.801Z,76014.52
2018-04-06T22:16:15.661Z,76025.66
2018-04-06T22:18:48.350Z,76061.09
2018-04-06T22:21:22.760Z,76028.70
2018-04-06T22:23:55.437Z,76024.64
2018-04-06T22:26:27.468Z,75977.06
2018-04-06T22:29:00.103Z,75997.31
2018-04-06T22:31:33.543Z,76003.39
2018-04-06T22:34:07.257Z,76020.59
2018-04-06T22:36:39.998Z,76016.55
2018-04-06T22:39:13.411Z,76018.57
2018-04-06T22:41:47.148Z,76003.39
2018-04-06T22:44:19.132Z,76037.81
2018-04-06T22:46:52.392Z,76017.56
2018-04-06T22:49:25.462Z,76080.33
2018-04-06T22:51:58.641Z,76144.11
2018-04-06T22:54:32.048Z,76156.25
2018-04-06T22:57:05.026Z,76218.01
2018-04-06T22:59:38.326Z,76227.13
2018-04-06T23:02:11.721Z,76252.43
2018-04-06T23:04:45.756Z,76199.79
2018-04-06T23:07:19.997Z,76249.39
2018-04-06T23:09:52.275Z,76218.01
2018-04-06T23:12:24.825Z,76225.09
2018-04-06T23:14:57.880Z,76205.86
2018-04-06T23:17:30.809Z,76209.91
2018-04-06T23:20:03.443Z,76179.53
2018-04-06T23:22:37.047Z,76213.96
2018-04-06T23:25:09.667Z,76201.81
2018-04-06T23:27:43.486Z,76186.63
2018-04-06T23:30:16.684Z,76147.14
2018-04-06T23:32:50.138Z,76123.86
2018-04-06T23:35:23.034Z,76126.89
2018-04-06T23:37:55.244Z,76140.05
2018-04-06T23:40:27.744Z,76147.14
2018-04-06T23:42:59.855Z,76163.34
2018-04-06T23:45:32.441Z,76148.16
2018-04-06T23:48:05.896Z,76165.36
2018-04-06T23:50:38.066Z,76143.09
2018-04-06T23:53:14.093Z,76169.41
2018-04-06T23:55:46.888Z,76165.36
2018-04-06T23:58:19.279Z,76138.03
